aviador You're here:

KSBP Decoded Metar

SAN LUIS OBISPO in CA, USA
Report Time2017-12-16 02:56:00
UTC Time2017-12-16 03:30:35
Flight Rules vfr VFR
Wind340° at 04 kt
W.Decomp.*RWY 29: 3.3 kt HW 2.3 kt RCW
RWY 25: 1.0 kt HW 3.9 kt RCW
W.Rank340° ranks 7
Current wind is below 340° avg. (7.2)
Visibility9999 m
Phenomena:N/A
Clouds:N/A
Expected CloudBase > 1,200 ft AGL from Temp-Dew spread
CeilingNone
Temp13°C (ISA -2)
Dew Point10°C (82% RH)
AAT11.6°C
QNH1017 hPa
Density Alt33 ft
Elevation194 ft
Report Wrong Elevation
Raw Report
KSBP 160256Z 34004KT 10SM CLR 13/10 A3002 RMK AO2 SLP168 T01330100
58002=

Extra information for KSBP:More info

Metar Taf Metar & Taf Last 4 Metars F.Rules Stats Wind Profile Meteogram Temp Stats Airport Information Weather charts Add Link Nearby VenuesMetar ALERT Operation Metar Decoded Social comments

AIRNAV info for KSBP